createdAt,value
2018-08-13T00:09:01.735Z,0
2018-08-13T00:19:05.377Z,0
2018-08-13T00:28:59.704Z,0
2018-08-13T00:39:04.451Z,0
2018-08-13T00:49:07.502Z,0
2018-08-13T00:59:00.780Z,0
2018-08-13T01:09:00.794Z,0
2018-08-13T01:18:59.702Z,0
2018-08-13T01:29:00.822Z,0
2018-08-13T01:38:59.691Z,0
2018-08-13T01:49:04.496Z,0
2018-08-13T01:58:59.708Z,0
2018-08-13T02:08:59.699Z,0
2018-08-13T02:19:03.388Z,0
2018-08-13T02:29:00.733Z,0
2018-08-13T02:38:59.699Z,0
2018-08-13T02:48:59.679Z,0
2018-08-13T02:58:59.738Z,0
2018-08-13T03:09:00.801Z,0
2018-08-13T03:18:59.708Z,0
2018-08-13T03:28:59.780Z,0
2018-08-13T03:38:59.698Z,0
2018-08-13T03:49:01.807Z,8
2018-08-13T03:58:59.727Z,28
2018-08-13T04:08:59.737Z,88
2018-08-13T04:18:59.775Z,120
2018-08-13T04:28:59.797Z,376
2018-08-13T04:38:59.745Z,992
2018-08-13T04:48:59.786Z,940
2018-08-13T04:59:00.957Z,860
2018-08-13T05:08:59.803Z,1044
2018-08-13T05:18:59.861Z,1864
2018-08-13T05:28:59.852Z,2980
2018-08-13T05:38:59.824Z,3004
2018-08-13T05:48:59.946Z,3388
2018-08-13T05:58:59.838Z,3000
2018-08-13T06:08:59.870Z,2828
2018-08-13T06:19:00.959Z,3208
2018-08-13T06:28:59.889Z,4536
2018-08-13T06:38:59.903Z,5420
2018-08-13T06:48:59.899Z,4844
2018-08-13T06:58:59.943Z,5828
2018-08-13T07:08:59.985Z,12368
2018-08-13T07:18:59.940Z,7044
2018-08-13T07:28:59.966Z,4512
2018-08-13T07:38:59.997Z,4436
2018-08-13T07:49:00.928Z,6108
2018-08-13T07:58:59.914Z,11948
2018-08-13T08:08:59.940Z,32512
2018-08-13T08:18:59.957Z,17768
2018-08-13T08:29:01.107Z,15744
2018-08-13T08:38:59.936Z,13020
2018-08-13T08:48:59.983Z,6936
2018-08-13T08:58:59.963Z,14312
2018-08-13T09:08:59.963Z,13432
2018-08-13T09:19:00.013Z,10984
2018-08-13T09:28:59.983Z,12740
2018-08-13T09:39:00.996Z,13748
2018-08-13T09:48:59.971Z,12332
2018-08-13T09:58:59.925Z,11552
2018-08-13T10:08:59.967Z,15788
2018-08-13T10:19:00.013Z,21920
2018-08-13T10:28:59.973Z,16372
2018-08-13T10:38:59.996Z,16864
2018-08-13T10:48:59.975Z,6848
2018-08-13T10:59:00.007Z,10552
2018-08-13T11:09:00.008Z,7672
2018-08-13T11:19:00.220Z,16640
2018-08-13T11:29:00.634Z,17176
2018-08-13T11:39:00.130Z,14508
2018-08-13T11:48:59.986Z,10428
2018-08-13T11:59:00.043Z,8380
2018-08-13T12:09:00.133Z,6900
2018-08-13T12:18:59.998Z,12500
2018-08-13T12:29:00.009Z,12004
2018-08-13T12:39:00.040Z,20448
2018-08-13T12:49:00.164Z,14536
2018-08-13T12:59:00.662Z,16552
2018-08-13T13:09:00.095Z,7500
2018-08-13T13:19:00.047Z,7880
2018-08-13T13:29:00.039Z,13432
2018-08-13T13:39:01.209Z,10972
2018-08-13T13:49:00.021Z,5124
2018-08-13T13:59:00.015Z,10292
2018-08-13T14:09:00.330Z,17260
2018-08-13T14:19:00.066Z,500
2018-08-13T14:29:00.060Z,1052
2018-08-13T14:39:00.044Z,2260
2018-08-13T14:49:00.028Z,9484
2018-08-13T14:59:00.078Z,8328
2018-08-13T15:09:00.059Z,10812
2018-08-13T15:19:00.119Z,5084
2018-08-13T15:29:00.034Z,5148
2018-08-13T15:39:00.031Z,2608
2018-08-13T15:49:00.108Z,2880
2018-08-13T15:59:00.200Z,10340
2018-08-13T16:09:00.142Z,5248
2018-08-13T16:19:00.065Z,4936
2018-08-13T16:29:00.045Z,6368
2018-08-13T16:39:00.054Z,4512
2018-08-13T16:49:00.112Z,3172
2018-08-13T16:59:00.152Z,3440
2018-08-13T17:09:00.123Z,1724
2018-08-13T17:19:00.108Z,1908
2018-08-13T17:29:00.063Z,6832
2018-08-13T17:39:00.030Z,2552
2018-08-13T17:49:00.084Z,2084
2018-08-13T17:59:00.147Z,2840
2018-08-13T18:09:00.140Z,1200
2018-08-13T18:19:00.261Z,952
2018-08-13T18:29:00.245Z,668
2018-08-13T18:39:00.276Z,468
2018-08-13T18:49:00.112Z,288
2018-08-13T18:59:00.135Z,144
2018-08-13T19:09:00.162Z,52
2018-08-13T19:19:00.115Z,16
2018-08-13T19:29:00.142Z,4
2018-08-13T19:39:00.098Z,4
2018-08-13T19:49:00.155Z,0
2018-08-13T19:59:00.053Z,0
2018-08-13T20:09:00.122Z,0
2018-08-13T20:19:00.195Z,0
2018-08-13T20:29:00.084Z,0
2018-08-13T20:39:01.189Z,0
2018-08-13T20:49:02.529Z,0
2018-08-13T20:59:02.254Z,0
2018-08-13T21:09:02.359Z,0
2018-08-13T21:19:02.509Z,0
2018-08-13T21:29:04.825Z,0
2018-08-13T21:39:07.130Z,0
2018-08-13T21:49:01.256Z,0
2018-08-13T21:59:03.490Z,0
2018-08-13T22:09:04.278Z,0
2018-08-13T22:19:01.272Z,0
2018-08-13T22:30:33.534Z,0
2018-08-13T22:40:39.969Z,0
2018-08-13T22:50:34.425Z,0
2018-08-13T23:00:40.125Z,0
2018-08-13T23:10:37.795Z,0
2018-08-13T23:20:39.389Z,0
2018-08-13T23:30:37.872Z,0
2018-08-13T23:40:35.321Z,0
2018-08-13T23:50:43.563Z,0
